Time,TemperatureF,DewpointF,PressureIn,WindDirection,WindDirectionDegrees,WindSpeedMPH,WindSpeedGustMPH,Humidity,HourlyPrecipIn,Conditions,Clouds,dailyrainin,SoftwareType,DateUTC
2013-04-17 00:02:00,36.0,36.0,-100.00,East,99,0.0,0.0,100,0.02,,,0.18,,2013-04-17 07:02:00,
2013-04-17 00:11:00,36.0,36.0,-100.00,East,99,0.0,0.0,100,0.02,,,0.18,,2013-04-17 07:11:00,
2013-04-17 00:21:00,36.0,36.0,-100.00,East,99,0.0,0.0,100,0.02,,,0.18,,2013-04-17 07:21:00,
2013-04-17 00:31:00,35.0,35.0,-100.00,East,99,0.0,0.0,100,0.02,,,0.18,,2013-04-17 07:31:00,
2013-04-17 00:42:00,35.0,35.0,-100.00,East,99,0.0,0.0,100,0.02,,,0.18,,2013-04-17 07:42:00,
2013-04-17 00:52:00,35.0,35.0,-100.00,East,99,0.0,0.0,100,0.00,,,0.18,,2013-04-17 07:52:00,
2013-04-17 01:02:00,35.0,35.0,-100.00,East,99,0.0,0.0,100,0.00,,,0.18,,2013-04-17 08:02:00,
2013-04-17 01:11:00,35.0,35.0,-100.00,East,99,0.0,0.0,100,0.00,,,0.18,,2013-04-17 08:11:00,
2013-04-17 01:21:00,36.0,36.0,-100.00,East,99,0.0,0.0,100,0.18,,,0.36,,2013-04-17 08:21:00,
2013-04-17 01:32:00,34.0,34.0,-100.00,East,99,0.0,0.0,100,0.18,,,0.36,,2013-04-17 08:32:00,
2013-04-17 01:41:00,34.0,34.0,-100.00,East,99,0.0,0.0,100,0.18,,,0.36,,2013-04-17 08:41:00,
2013-04-17 01:52:00,34.0,34.0,-100.00,East,99,0.0,0.0,100,0.18,,,0.36,,2013-04-17 08:52:00,
2013-04-17 02:01:00,34.0,34.0,-100.00,East,99,0.0,0.0,100,0.32,,,0.50,,2013-04-17 09:01:00,
2013-04-17 02:11:00,34.0,34.0,-100.00,East,99,0.0,0.0,100,0.32,,,0.50,,2013-04-17 09:11:00,
2013-04-17 02:21:00,34.0,34.0,-100.00,East,99,0.0,0.0,100,0.16,,,0.52,,2013-04-17 09:21:00,
2013-04-17 02:32:00,34.0,34.0,-100.00,East,99,0.0,0.0,100,0.16,,,0.52,,2013-04-17 09:32:00,
2013-04-17 02:42:00,34.0,34.0,-100.00,East,99,0.0,0.0,100,0.16,,,0.52,,2013-04-17 09:42:00,
2013-04-17 02:52:00,34.0,34.0,-100.00,East,99,0.0,0.0,100,0.16,,,0.52,,2013-04-17 09:52:00,
2013-04-17 03:02:00,34.0,34.0,-100.00,East,99,0.0,0.0,100,0.16,,,0.52,,2013-04-17 10:02:00,
2013-04-17 03:12:00,34.0,34.0,-100.00,East,99,0.0,0.0,100,0.16,,,0.52,,2013-04-17 10:12:00,
2013-04-17 03:22:00,33.0,33.0,-100.00,East,99,0.0,0.0,100,0.00,,,0.52,,2013-04-17 10:22:00,
2013-04-17 03:32:00,33.0,33.0,-100.00,East,99,0.0,0.0,100,0.00,,,0.52,,2013-04-17 10:32:00,
2013-04-17 03:43:00,33.0,33.0,-100.00,East,99,0.0,0.0,100,0.00,,,0.52,,2013-04-17 10:43:00,
2013-04-17 03:52:00,33.0,33.0,-100.00,East,99,0.0,0.0,100,0.00,,,0.52,,2013-04-17 10:52:00,
2013-04-17 04:02:00,33.0,33.0,-100.00,East,99,0.0,0.0,100,0.00,,,0.52,,2013-04-17 11:02:00,
2013-04-17 04:11:00,33.0,33.0,-100.00,East,99,0.0,0.0,100,0.00,,,0.52,,2013-04-17 11:11:00,
2013-04-17 04:21:00,33.0,33.0,-100.00,East,99,0.0,0.0,100,0.00,,,0.52,,2013-04-17 11:21:00,
2013-04-17 04:31:00,33.0,33.0,-100.00,East,99,0.0,0.0,100,0.00,,,0.52,,2013-04-17 11:31:00,
2013-04-17 04:42:00,33.0,33.0,-100.00,East,99,0.0,0.0,100,0.00,,,0.52,,2013-04-17 11:42:00,
2013-04-17 04:52:00,33.0,33.0,-100.00,East,99,0.0,0.0,100,0.00,,,0.52,,2013-04-17 11:52:00,
2013-04-17 05:02:00,33.0,33.0,-100.00,East,99,0.0,0.0,100,0.00,,,0.52,,2013-04-17 12:02:00,
2013-04-17 05:12:00,33.0,33.0,-100.00,East,99,0.0,0.0,100,0.00,,,0.52,,2013-04-17 12:12:00,
2013-04-17 05:22:00,33.0,33.0,-100.00,East,99,0.0,0.0,100,0.00,,,0.52,,2013-04-17 12:22:00,
2013-04-17 05:32:00,34.0,34.0,-100.00,East,99,0.0,0.0,100,0.00,,,0.52,,2013-04-17 12:32:00,
2013-04-17 05:42:00,34.0,34.0,-100.00,East,99,0.0,0.0,100,0.00,,,0.52,,2013-04-17 12:42:00,
2013-04-17 05:52:00,34.0,34.0,-100.00,East,99,0.0,0.0,100,0.00,,,0.52,,2013-04-17 12:52:00,
2013-04-17 06:01:00,33.0,33.0,-100.00,East,99,0.0,0.0,100,0.00,,,0.52,,2013-04-17 13:01:00,
2013-04-17 06:11:00,33.0,33.0,-100.00,East,99,0.0,0.0,100,0.00,,,0.52,,2013-04-17 13:11:00,
2013-04-17 06:22:00,33.0,33.0,-100.00,East,99,0.0,0.0,100,0.00,,,0.52,,2013-04-17 13:22:00,
2013-04-17 06:31:00,33.0,33.0,-100.00,East,99,0.0,0.0,100,0.00,,,0.52,,2013-04-17 13:31:00,
2013-04-17 06:41:00,33.0,33.0,-100.00,East,99,0.0,0.0,100,0.00,,,0.52,,2013-04-17 13:41:00,
2013-04-17 06:52:00,34.0,34.0,-100.00,East,99,0.0,0.0,100,0.00,,,0.52,,2013-04-17 13:52:00,
2013-04-17 07:01:00,34.0,34.0,-100.00,East,99,0.0,0.0,100,0.00,,,0.52,,2013-04-17 14:01:00,
2013-04-17 07:11:00,34.0,34.0,-100.00,East,99,0.0,0.0,100,0.00,,,0.52,,2013-04-17 14:11:00,
2013-04-17 07:21:00,35.0,35.0,-100.00,East,99,0.0,0.0,100,0.00,,,0.48,,2013-04-17 14:21:00,
2013-04-17 07:32:00,38.0,38.0,-100.00,East,99,0.0,0.0,100,0.00,,,0.48,,2013-04-17 14:32:00,
2013-04-17 07:41:00,40.0,40.0,-100.00,East,99,0.0,0.0,100,0.00,,,0.48,,2013-04-17 14:41:00,
2013-04-17 08:01:00,40.0,40.0,-100.00,East,99,0.0,0.0,100,0.00,,,0.48,,2013-04-17 15:01:00,
2013-04-17 08:11:00,43.0,43.0,-100.00,East,99,0.0,0.0,100,0.00,,,0.52,,2013-04-17 15:11:00,
2013-04-17 08:33:00,43.0,43.0,-100.00,East,99,0.0,0.0,100,0.00,,,0.52,,2013-04-17 15:33:00,
2013-04-17 08:53:00,46.0,46.0,-100.00,East,99,0.0,0.0,100,0.00,,,0.52,,2013-04-17 15:53:00,
2013-04-17 09:03:00,45.0,45.0,-100.00,East,99,0.0,0.0,100,0.00,,,0.52,,2013-04-17 16:03:00,
2013-04-17 09:12:00,46.0,46.0,-100.00,East,99,0.0,0.0,100,0.00,,,0.54,,2013-04-17 16:12:00,
2013-04-17 09:32:00,47.0,47.0,-100.00,East,99,0.0,0.0,100,0.00,,,0.54,,2013-04-17 16:32:00,
2013-04-17 09:52:00,51.0,51.0,-100.00,East,99,0.0,0.0,100,0.00,,,0.54,,2013-04-17 16:52:00,
2013-04-17 10:02:00,51.0,51.0,-100.00,East,99,0.0,0.0,100,0.00,,,0.54,,2013-04-17 17:02:00,
2013-04-17 10:32:00,56.0,56.0,-100.00,East,99,0.0,0.0,100,0.00,,,0.54,,2013-04-17 17:32:00,
2013-04-17 10:52:00,56.0,56.0,-100.00,East,99,0.0,0.0,100,0.00,,,0.54,,2013-04-17 17:52:00,
2013-04-17 11:01:00,53.0,53.0,-100.00,East,99,0.0,0.0,100,0.00,,,0.00,,2013-04-17 18:01:00,
2013-04-17 11:22:00,54.0,54.0,-100.00,East,99,0.0,0.0,100,0.00,,,0.00,,2013-04-17 18:22:00,
2013-04-17 11:31:00,56.0,56.0,-100.00,East,99,0.0,0.0,100,0.00,,,0.00,,2013-04-17 18:31:00,
2013-04-17 12:01:00,57.0,57.0,-100.00,East,99,0.0,0.0,100,0.00,,,0.00,,2013-04-17 19:01:00,
2013-04-17 12:21:00,58.0,58.0,-100.00,East,99,0.0,0.0,100,0.00,,,0.00,,2013-04-17 19:21:00,
2013-04-17 12:31:00,58.0,58.0,-100.00,East,99,0.0,0.0,100,0.00,,,0.00,,2013-04-17 19:31:00,
2013-04-17 12:41:00,60.0,60.0,-100.00,East,99,0.0,0.0,100,0.00,,,0.00,,2013-04-17 19:41:00,
2013-04-17 12:52:00,60.0,60.0,-100.00,East,99,0.0,0.0,100,0.00,,,0.00,,2013-04-17 19:52:00,
2013-04-17 13:01:00,62.0,62.0,-100.00,East,99,0.0,0.0,100,0.00,,,0.00,,2013-04-17 20:01:00,
2013-04-17 13:31:00,59.0,59.0,-100.00,East,99,0.0,0.0,100,0.00,,,0.00,,2013-04-17 20:31:00,
2013-04-17 13:52:00,57.0,57.0,-100.00,East,99,0.0,0.0,100,0.00,,,0.00,,2013-04-17 20:52:00,
2013-04-17 14:02:00,56.0,56.0,-100.00,East,99,0.0,0.0,100,0.00,,,0.00,,2013-04-17 21:02:00,
2013-04-17 14:22:00,56.0,56.0,-100.00,East,99,0.0,0.0,100,0.00,,,0.00,,2013-04-17 21:22:00,
2013-04-17 14:32:00,57.0,57.0,-100.00,East,99,0.0,0.0,100,0.00,,,0.00,,2013-04-17 21:32:00,
2013-04-17 14:42:00,58.0,58.0,-100.00,East,99,0.0,0.0,100,0.00,,,0.00,,2013-04-17 21:42:00,
2013-04-17 15:02:00,57.0,57.0,-100.00,East,99,0.0,0.0,100,0.00,,,0.00,,2013-04-17 22:02:00,
2013-04-17 15:12:00,59.0,59.0,-100.00,East,99,0.0,0.0,100,0.00,,,0.00,,2013-04-17 22:12:00,
2013-04-17 15:32:00,59.0,59.0,-100.00,East,99,0.0,0.0,100,0.00,,,0.00,,2013-04-17 22:32:00,
2013-04-17 15:42:00,60.0,60.0,-100.00,East,99,0.0,0.0,100,0.00,,,0.00,,2013-04-17 22:42:00,
2013-04-17 16:02:00,60.0,60.0,-100.00,East,99,0.0,0.0,100,0.00,,,0.00,,2013-04-17 23:02:00,
2013-04-17 16:12:00,58.0,58.0,-100.00,East,99,0.0,0.0,100,0.00,,,0.00,,2013-04-17 23:12:00,
2013-04-17 16:32:00,59.0,59.0,-100.00,East,99,0.0,0.0,100,0.00,,,0.00,,2013-04-17 23:32:00,
2013-04-17 16:42:00,57.0,57.0,-100.00,East,99,0.0,0.0,100,0.00,,,0.00,,2013-04-17 23:42:00,
2013-04-17 17:01:00,57.0,57.0,-100.00,East,99,0.0,0.0,100,0.00,,,0.00,,2013-04-18 00:01:00,
2013-04-17 17:12:00,56.0,56.0,-100.00,East,99,0.0,0.0,100,0.00,,,0.00,,2013-04-18 00:12:00,
2013-04-17 17:32:00,56.0,56.0,-100.00,East,99,0.0,0.0,100,0.00,,,0.00,,2013-04-18 00:32:00,
2013-04-17 17:42:00,55.0,55.0,-100.00,East,99,0.0,0.0,100,0.00,,,0.00,,2013-04-18 00:42:00,
2013-04-17 18:01:00,55.0,55.0,-100.00,East,99,0.0,0.0,100,0.00,,,0.00,,2013-04-18 01:01:00,
2013-04-17 18:11:00,54.0,54.0,-100.00,East,99,0.0,0.0,100,0.00,,,0.00,,2013-04-18 01:11:00,
2013-04-17 18:32:00,54.0,54.0,-100.00,East,99,0.0,0.0,100,0.00,,,0.00,,2013-04-18 01:32:00,
2013-04-17 18:41:00,54.0,54.0,-100.00,East,99,0.0,0.0,100,0.00,,,0.00,,2013-04-18 01:41:00,
2013-04-17 19:01:00,54.0,54.0,-100.00,East,99,0.0,0.0,100,0.00,,,0.00,,2013-04-18 02:01:00,
2013-04-17 19:11:00,53.0,53.0,-100.00,East,99,0.0,0.0,100,0.00,,,0.00,,2013-04-18 02:11:00,
2013-04-17 19:31:00,53.0,53.0,-100.00,East,99,0.0,0.0,100,0.00,,,0.00,,2013-04-18 02:31:00,
2013-04-17 19:41:00,53.0,53.0,-100.00,East,99,0.0,0.0,100,0.00,,,0.00,,2013-04-18 02:41:00,
2013-04-17 19:52:00,53.0,53.0,-100.00,East,99,0.0,0.0,100,0.00,,,0.00,,2013-04-18 02:52:00,
2013-04-17 20:01:00,53.0,53.0,-100.00,East,99,0.0,0.0,100,0.00,,,0.00,,2013-04-18 03:01:00,
2013-04-17 20:11:00,52.0,52.0,-100.00,East,99,0.0,0.0,100,0.00,,,0.00,,2013-04-18 03:11:00,
2013-04-17 20:33:00,51.0,51.0,-100.00,East,99,0.0,0.0,100,0.00,,,0.00,,2013-04-18 03:33:00,
2013-04-17 20:42:00,51.0,51.0,-100.00,East,99,0.0,0.0,100,0.00,,,0.00,,2013-04-18 03:42:00,
2013-04-17 21:03:00,50.0,50.0,-100.00,East,99,0.0,0.0,100,0.00,,,0.00,,2013-04-18 04:03:00,
2013-04-17 21:32:00,49.0,49.0,-100.00,East,99,0.0,0.0,100,0.00,,,0.00,,2013-04-18 04:32:00,
2013-04-17 21:42:00,48.0,48.0,-100.00,East,99,0.0,0.0,100,0.00,,,0.00,,2013-04-18 04:42:00,
2013-04-17 22:02:00,48.0,48.0,-100.00,East,99,0.0,0.0,100,0.00,,,0.00,,2013-04-18 05:02:00,
2013-04-17 22:12:00,47.0,47.0,-100.00,East,99,0.0,0.0,100,0.00,,,0.00,,2013-04-18 05:12:00,
2013-04-17 22:32:00,47.0,47.0,-100.00,East,99,0.0,0.0,100,0.00,,,0.00,,2013-04-18 05:32:00,
2013-04-17 22:42:00,46.0,46.0,-100.00,East,99,0.0,0.0,100,0.00,,,0.00,,2013-04-18 05:42:00,
2013-04-17 23:01:00,46.0,46.0,-100.00,East,99,0.0,0.0,100,0.00,,,0.00,,2013-04-18 06:01:00,
2013-04-17 23:12:00,46.0,46.0,-100.00,East,99,0.0,0.0,100,0.00,,,0.00,,2013-04-18 06:12:00,
2013-04-17 23:31:00,45.0,45.0,-100.00,East,99,0.0,0.0,100,0.00,,,0.00,,2013-04-18 06:31:00,
2013-04-17 23:42:00,44.0,44.0,-100.00,East,99,0.0,0.0,100,0.00,,,0.00,,2013-04-18 06:42:00,